LIMFLIPR

Guest
Details From LIMF - Torino Caselle
To LIPR - Rimini Mil
Flight Number -
Tags generated
Created
Modified
Stats Distance 227 nm / 420 km
Max Altitude 25,400 ft / 7,742 m
Waypoints 4
Social Downloads 1
Likes 0
Share VATSIM

Download

Looking for another format? Having issues loading an existing format? Contact us
Advertisement - Login to hide

Notes

Basic altitude profile: - Ascent Rate: 2500ft/min - Ascent Speed: 250kts - Cruise Altitude: 35000ft - Cruise Speed: 420kts - Descent Rate: 1500ft/min - Descent Speed: 250kts Options: - Use NATs: yes - Use PACOTS: yes - Use low airways: yes - Use high airways: yes

Route

LIMF KALIK UM859 LUPOS LIPR

ID Type Via Altitude Latitude Longitude Leg Dist Tot Dist Heading (true) Name
O LIMF APT - 0 ft / 0 m 45.20076˚ 7.64963˚ - 0 nm - Torino Caselle
KALIK FIX - 25,400 ft / 7,742 m 44.46833˚ 9.84806˚ 103 nm 103 nm 114° / 116° -
LUPOS FIX UM859 (AWY-HI) 19,700 ft / 6,005 m 44.50472˚ 10.58139˚ 31 nm 134 nm 86° / 86° -
O LIPR APT - 0 ft / 0 m 44.02029˚ 12.61175˚ 92 nm 226 nm 108° / 109° Rimini Mil

Altitude Profile

Advertisement - Login to hide

Weather


0- 5 10 15 20 25 30 35+ Temperature / ° C

Clouds and Precipitation
Forecast for 2018-05-24 12:00 UTC. Updated an hour ago

Ground ~20,000 ft ~40,000 ft Winds

LIMF

Details ICAO LIMF (TRN)
Name Torino Caselle
Region Italy
Timezone Europe/Rome (UTC+2.0)
Stats Elevation 989 ft / 301 m (AMSL)
Location 45.200763° 7.649630°
Runways 1
Magnetic Variation 2.173° E

METAR

LIMF 241150Z VRB05KT 9999 FEW030 25/14 Q1017

Decode

TAF

TAF LIMF 241100Z 2412/2512 VRB05KT 9999 SCT050

Decode

Departure Runways

ID Width Length Bearing (true) Bearing (mag) Surface Threshold Offset Overrun Length
18 197 ft / 60 m 10,835 ft / 3,303 m 182.56° 180.39° Asphalt 2,378 ft / 725 m 970 ft / 296 m
36 197 ft / 60 m 10,835 ft / 3,303 m 2.56° 0.39° Asphalt 1,148 ft / 350 m 0 ft / 0 m

LIPR

Details ICAO LIPR (RMI)
Name Rimini Mil
Region Italy
Timezone Europe/Rome (UTC+2.0)
Stats Elevation 41 ft / 12 m (AMSL)
Location 44.020286° 12.611746°
Runways 1
Magnetic Variation 3.216° E

METAR

LIPR 241145Z 03009KT 9999 FEW025 24/19 Q1016 RMK SCT VIS MIN 9999 WIND THR31 03006KT BLU

Decode

TAF

Not found

Destination Runways

ID Width Length Bearing (true) Bearing (mag) Surface Threshold Offset Overrun Length
13 148 ft / 45 m 9,818 ft / 2,992 m 127.79° 124.57° Asphalt 1,030 ft / 314 m 846 ft / 258 m
31 148 ft / 45 m 9,818 ft / 2,992 m 307.81° 304.59° Asphalt 1,006 ft / 307 m 376 ft / 115 m

Approach Navaids

Runway Type Ident Frequency Range Bearing (true) Bearing (mag) Slope Elevation
31 Localiser MIR 109.30 MHz 18 nm / 33 km 307.77° 304.56° - 41 ft / 12 m (AMSL)
31 Glidescope MIR 109.30 MHz 10 nm / 19 km 307.80° 304.58° 3.00° 41 ft / 12 m (AMSL)

Popular Alternatives